Time;durP1;ratioP1;P1;durP2;ratioP2;P2;SDS_P1;SDS_P2;PMS_P1;PMS_P2;Temp;Humidity;BMP_temperature;BMP_pressure;BME280_temperature;BME280_humidity;BME280_pressure;Samples;Min_cycle;Max_cycle;Signal;HPM_P1;HPM_P2
2022/06/08 00:00:04;;;;;;;;;;;;;;;25.58;45.85;98440.91;4483811;32;33884;-85
2022/06/08 00:02:36;;;;;;;;;;;;;;;25.37;46.82;98435.94;4483494;32;34273;-84
2022/06/08 00:05:04;;;;;;;;;;;;;;;25.94;45.34;98436.03;4482898;32;35155;-87
2022/06/08 00:07:31;;;;;;;;;;;;;;;25.88;45.49;98435.59;4482901;32;34743;-83
2022/06/08 00:09:59;;;;;;;;;;;;;;;24.77;48.18;98438.50;4483287;32;33541;-86
2022/06/08 00:12:27;;;;;;;;;;;;;;;25.38;46.76;98439.44;4483317;32;34915;-85
2022/06/08 00:14:54;;;;;;;;;;;;;;;24.87;47.78;98444.16;4482414;32;35028;-86
2022/06/08 00:17:22;;;;;;;;;;;;;;;25.42;46.71;98435.66;4483516;32;34153;-87
2022/06/08 00:19:49;;;;;;;;;;;;;;;24.55;48.71;98438.87;4483077;32;34250;-86
2022/06/08 00:22:17;;;;;;;;;;;;;;;25.11;47.48;98432.16;4482232;32;34024;-83
2022/06/08 00:24:44;;;;;;;;;;;;;;;24.69;48.89;98430.97;4468895;32;34532;-86
2022/06/08 00:27:12;;;;;;;;;;;;;;;23.68;51.40;98433.81;4483177;32;34548;-84
2022/06/08 00:29:41;;;;;;;;;;;;;;;24.59;49.38;98426.31;4483439;32;33471;-85
2022/06/08 00:32:08;;;;;;;;;;;;;;;25.39;47.26;98426.09;4468220;32;34448;-82
2022/06/08 00:34:36;;;;;;;;;;;;;;;24.46;49.70;98431.41;4483230;32;34537;-83
2022/06/08 00:37:03;;;;;;;;;;;;;;;24.96;48.56;98433.00;4483319;32;33902;-85
2022/06/08 00:39:30;;;;;;;;;;;;;;;25.20;47.95;98426.31;4483099;32;33434;-85
2022/06/08 00:42:02;;;;;;;;;;;;;;;25.37;47.17;98427.12;4481567;32;33800;-86
2022/06/08 00:44:42;;;;;;;;;;;;;;;25.19;47.59;98427.28;4467919;32;33917;-86
2022/06/08 00:47:10;;;;;;;;;;;;;;;25.77;45.95;98427.38;4479754;32;34515;-86
2022/06/08 00:49:42;;;;;;;;;;;;;;;25.51;46.67;98440.44;4479873;32;33653;-83
2022/06/08 00:52:10;;;;;;;;;;;;;;;25.09;47.80;98484.41;4479699;32;33795;-85
2022/06/08 00:54:38;;;;;;;;;;;;;;;25.14;47.58;98556.66;4467653;32;34249;-84
2022/06/08 00:57:08;;;;;;;;;;;;;;;25.03;48.23;98561.66;4459856;32;32504;-85
2022/06/08 00:59:36;;;;;;;;;;;;;;;24.94;48.49;98514.44;4470711;32;33553;-84
2022/06/08 01:02:03;;;;;;;;;;;;;;;25.14;48.04;98511.56;4458421;32;33639;-84
2022/06/08 01:04:31;;;;;;;;;;;;;;;25.85;46.29;98499.50;4480516;32;35362;-86
2022/06/08 01:06:59;;;;;;;;;;;;;;;25.19;47.57;98498.00;4483050;32;34448;-86
2022/06/08 01:09:27;;;;;;;;;;;;;;;24.59;49.22;98497.88;4473016;32;31979;-84
2022/06/08 01:11:56;;;;;;;;;;;;;;;25.43;47.21;98501.91;4459149;32;33839;-84
2022/06/08 01:14:24;;;;;;;;;;;;;;;25.93;45.95;98489.25;4453409;32;35375;-83
2022/06/08 01:16:58;;;;;;;;;;;;;;;25.32;47.39;98484.91;4467314;32;35239;-87
2022/06/08 01:19:26;;;;;;;;;;;;;;;25.17;48.17;98482.19;4479899;32;33103;-84
2022/06/08 01:21:55;;;;;;;;;;;;;;;25.47;47.41;98471.59;4453847;32;34025;-84
2022/06/08 01:24:23;;;;;;;;;;;;;;;24.62;49.23;98461.41;4452843;32;35324;-88
2022/06/08 01:26:54;;;;;;;;;;;;;;;23.94;51.03;98469.50;4453316;32;35278;-84
2022/06/08 01:29:26;;;;;;;;;;;;;;;23.96;51.93;98472.06;4472712;32;33802;-86
2022/06/08 01:32:11;;;;;;;;;;;;;;;24.70;49.37;98468.94;4452094;32;34830;-85
2022/06/08 01:34:47;;;;;;;;;;;;;;;24.73;49.74;98477.56;4479122;32;35161;-86
2022/06/08 01:37:15;;;;;;;;;;;;;;;24.05;51.55;98476.87;4462094;32;34536;-84
2022/06/08 01:39:45;;;;;;;;;;;;;;;24.31;51.60;98474.63;4472982;32;33692;-84
2022/06/08 01:42:31;;;;;;;;;;;;;;;24.10;51.84;98468.69;4467662;32;35117;-85
2022/06/08 01:47:53;;;;;;;;;;;;;;;24.12;52.50;98443.81;4478046;32;34569;-89
2022/06/08 01:50:36;;;;;;;;;;;;;;;24.27;52.18;98437.69;4469668;32;33443;-87
2022/06/08 01:53:10;;;;;;;;;;;;;;;24.28;52.30;98436.78;4475364;32;35152;-86
2022/06/08 01:55:43;;;;;;;;;;;;;;;24.68;50.79;98439.88;4469956;32;35378;-86
2022/06/08 01:58:12;;;;;;;;;;;;;;;24.12;53.05;98449.13;4453871;32;34028;-85
2022/06/08 02:00:42;;;;;;;;;;;;;;;24.84;51.15;98454.91;4458639;32;34244;-86
2022/06/08 02:03:17;;;;;;;;;;;;;;;24.44;51.87;98462.47;4468683;32;34958;-86
2022/06/08 02:05:45;;;;;;;;;;;;;;;24.00;53.25;98460.38;4481518;32;35336;-85
2022/06/08 02:08:13;;;;;;;;;;;;;;;22.94;55.83;98473.66;4481968;32;34533;-85
2022/06/08 02:11:01;;;;;;;;;;;;;;;22.97;56.40;98481.44;4481785;32;33179;-87
2022/06/08 02:13:38;;;;;;;;;;;;;;;24.22;52.85;98484.78;4481670;32;34119;-84
2022/06/08 02:16:26;;;;;;;;;;;;;;;23.64;54.19;98494.88;4465418;32;34144;-87
2022/06/08 02:18:56;;;;;;;;;;;;;;;24.73;51.18;98495.28;4470983;32;34498;-84
2022/06/08 02:21:27;;;;;;;;;;;;;;;24.56;51.43;98493.59;4466785;32;34101;-88
2022/06/08 02:23:57;;;;;;;;;;;;;;;24.39;51.89;98491.84;4456748;32;34185;-88
2022/06/08 02:26:27;;;;;;;;;;;;;;;24.44;51.72;98491.59;4451830;32;34490;-87
2022/06/08 02:28:54;;;;;;;;;;;;;;;24.39;51.58;98491.84;4451980;32;34395;-86
2022/06/08 02:31:34;;;;;;;;;;;;;;;24.28;52.03;98497.72;4473205;32;34135;-84
2022/06/08 02:36:53;;;;;;;;;;;;;;;23.40;54.45;98483.75;4464336;32;33997;-87
2022/06/08 02:39:22;;;;;;;;;;;;;;;22.24;58.18;98496.31;4452259;32;34230;-84
2022/06/08 02:41:50;;;;;;;;;;;;;;;23.63;54.49;98491.37;4462130;32;34419;-84
2022/06/08 02:44:18;;;;;;;;;;;;;;;23.56;54.32;98500.56;4458781;32;34735;-85
2022/06/08 02:46:58;;;;;;;;;;;;;;;23.51;54.82;98494.66;4463442;32;33994;-84
2022/06/08 02:49:26;;;;;;;;;;;;;;;23.30;55.34;98486.88;4484040;32;35390;-85
2022/06/08 02:51:57;;;;;;;;;;;;;;;22.87;57.04;98476.63;4483345;32;33570;-84
2022/06/08 02:54:25;;;;;;;;;;;;;;;22.94;56.62;98452.50;4470943;32;34199;-85
2022/06/08 02:57:02;;;;;;;;;;;;;;;23.45;55.06;98439.37;4459013;32;35290;-84
2022/06/08 02:59:36;;;;;;;;;;;;;;;22.68;57.02;98453.72;4482126;31;33970;-84
2022/06/08 03:02:14;;;;;;;;;;;;;;;23.03;55.60;98453.84;4478222;31;34282;-85
2022/06/08 03:04:56;;;;;;;;;;;;;;;22.77;57.58;98463.03;4454642;32;33983;-85
2022/06/08 03:07:25;;;;;;;;;;;;;;;23.45;54.67;98461.44;4468941;32;35272;-85
2022/06/08 03:09:52;;;;;;;;;;;;;;;22.66;57.35;98468.81;4454482;32;34206;-88
2022/06/08 03:12:25;;;;;;;;;;;;;;;22.69;57.16;98468.69;4464583;32;34417;-85
2022/06/08 03:14:53;;;;;;;;;;;;;;;22.92;57.14;98478.19;4468970;32;34134;-84
2022/06/08 03:17:27;;;;;;;;;;;;;;;22.57;57.68;98478.00;4483636;32;33916;-84
2022/06/08 03:19:55;;;;;;;;;;;;;;;22.03;59.49;98482.22;4454054;32;35100;-84
2022/06/08 03:22:22;;;;;;;;;;;;;;;22.25;58.79;98483.94;4464209;32;33648;-84
2022/06/08 03:24:49;;;;;;;;;;;;;;;22.04;59.41;98483.09;4483948;32;34965;-85
2022/06/08 03:27:17;;;;;;;;;;;;;;;22.83;57.25;98490.00;4468391;32;35217;-86
2022/06/08 03:29:46;;;;;;;;;;;;;;;22.63;57.86;98492.75;4469000;32;35073;-85
2022/06/08 03:32:14;;;;;;;;;;;;;;;22.54;58.43;98494.03;4473299;32;33324;-84
2022/06/08 03:34:42;;;;;;;;;;;;;;;21.36;61.67;98499.19;4477569;32;35157;-85
2022/06/08 03:37:10;;;;;;;;;;;;;;;22.02;59.93;98498.16;4480653;32;34101;-85
2022/06/08 03:39:38;;;;;;;;;;;;;;;22.96;57.30;98497.41;4483595;32;34381;-85
2022/06/08 03:42:05;;;;;;;;;;;;;;;23.10;56.62;98496.69;4476447;32;34469;-85
2022/06/08 03:44:32;;;;;;;;;;;;;;;23.24;56.18;98495.09;4479151;32;33922;-85
2022/06/08 03:47:02;;;;;;;;;;;;;;;22.43;58.56;98498.97;4477174;32;34256;-85
2022/06/08 03:49:30;;;;;;;;;;;;;;;22.85;57.56;98491.72;4461959;32;34609;-85
2022/06/08 03:51:57;;;;;;;;;;;;;;;22.87;57.58;98484.56;4475692;32;34581;-85
2022/06/08 03:54:26;;;;;;;;;;;;;;;22.86;57.65;98481.06;4482762;32;34707;-83
2022/06/08 03:56:54;;;;;;;;;;;;;;;22.64;58.37;98477.75;4468648;32;34180;-85
2022/06/08 03:59:22;;;;;;;;;;;;;;;23.06;56.84;98475.69;4469048;32;34869;-85
2022/06/08 04:01:50;;;;;;;;;;;;;;;23.09;56.51;98474.69;4479851;32;33404;-83
2022/06/08 04:04:18;;;;;;;;;;;;;;;22.37;58.29;98475.47;4483104;32;34246;-85
2022/06/08 04:06:45;;;;;;;;;;;;;;;23.51;55.25;98460.25;4483491;32;34312;-84
2022/06/08 04:09:13;;;;;;;;;;;;;;;23.86;54.75;98465.53;4483414;32;34532;-85
2022/06/08 04:11:42;;;;;;;;;;;;;;;24.01;54.46;98473.53;4482529;32;33727;-85
2022/06/08 04:14:10;;;;;;;;;;;;;;;23.76;54.05;98478.41;4483026;32;33916;-82
2022/06/08 04:16:37;;;;;;;;;;;;;;;24.13;53.48;98479.09;4474514;32;35190;-84
2022/06/08 04:19:07;;;;;;;;;;;;;;;24.49;52.69;98484.25;4477120;32;34000;-84
2022/06/08 04:21:34;;;;;;;;;;;;;;;24.39;52.94;98490.97;4463900;32;34347;-84
2022/06/08 04:24:02;;;;;;;;;;;;;;;24.78;51.33;98487.09;4482214;32;34035;-86
2022/06/08 04:26:30;;;;;;;;;;;;;;;25.02;50.92;98484.84;4475502;32;35460;-83
2022/06/08 04:28:57;;;;;;;;;;;;;;;24.61;52.43;98480.91;4480711;32;34504;-88
2022/06/08 04:31:25;;;;;;;;;;;;;;;24.35;53.32;98489.41;4479884;32;34092;-86
2022/06/08 04:33:53;;;;;;;;;;;;;;;23.28;56.02;98486.06;4468082;32;34505;-83
2022/06/08 04:36:21;;;;;;;;;;;;;;;23.76;55.07;98484.56;4479460;32;34407;-82
2022/06/08 04:38:49;;;;;;;;;;;;;;;24.07;54.99;98484.75;4476858;32;34455;-85
2022/06/08 04:41:17;;;;;;;;;;;;;;;24.59;53.36;98487.25;4473609;32;33531;-88
2022/06/08 04:43:44;;;;;;;;;;;;;;;25.52;51.27;98479.28;4468794;32;34919;-85
2022/06/08 04:46:16;;;;;;;;;;;;;;;25.85;49.96;98472.94;4479705;32;34326;-85
2022/06/08 04:48:44;;;;;;;;;;;;;;;25.91;49.72;98469.87;4480466;32;35358;-85
2022/06/08 04:51:12;;;;;;;;;;;;;;;25.34;50.96;98470.59;4459439;32;33224;-83
2022/06/08 04:53:41;;;;;;;;;;;;;;;24.86;52.40;98474.25;4465224;32;35035;-84
2022/06/08 04:56:09;;;;;;;;;;;;;;;25.39;50.78;98465.03;4469174;32;34222;-86
2022/06/08 04:58:36;;;;;;;;;;;;;;;25.93;49.96;98463.56;4459781;32;34769;-83
2022/06/08 05:01:04;;;;;;;;;;;;;;;25.42;50.85;98464.84;4470285;32;32921;-86
2022/06/08 05:03:31;;;;;;;;;;;;;;;26.44;48.80;98463.94;4460546;32;35072;-85
2022/06/08 05:05:59;;;;;;;;;;;;;;;26.36;49.03;98468.00;4429550;32;865669;-83
2022/06/08 05:08:28;;;;;;;;;;;;;;;27.13;47.66;98471.97;4482774;32;34118;-85
2022/06/08 05:10:57;;;;;;;;;;;;;;;27.11;46.96;98473.88;4468773;32;33388;-89
2022/06/08 05:13:25;;;;;;;;;;;;;;;26.39;48.72;98466.00;4482523;32;34070;-84
2022/06/08 05:15:52;;;;;;;;;;;;;;;26.10;49.28;98472.28;4482610;32;34109;-87
2022/06/08 05:18:22;;;;;;;;;;;;;;;26.78;48.07;98476.87;4483170;32;34663;-85
2022/06/08 05:20:50;;;;;;;;;;;;;;;27.57;45.98;98476.97;4483182;32;33216;-85
2022/06/08 05:23:19;;;;;;;;;;;;;;;26.94;47.09;98482.94;4482152;32;34358;-85
2022/06/08 05:25:47;;;;;;;;;;;;;;;25.95;49.12;98490.03;4469792;32;34955;-83
2022/06/08 05:28:14;;;;;;;;;;;;;;;26.90;46.92;98497.38;4468626;32;33837;-85
2022/06/08 05:30:43;;;;;;;;;;;;;;;26.58;48.19;98499.44;4483076;32;34698;-84
2022/06/08 05:33:14;;;;;;;;;;;;;;;25.38;50.68;98501.34;4468317;32;34020;-86
2022/06/08 05:35:41;;;;;;;;;;;;;;;26.49;48.08;98498.22;4479466;32;33973;-84
2022/06/08 05:38:11;;;;;;;;;;;;;;;25.84;49.66;98501.31;4468970;32;35222;-83
2022/06/08 05:40:39;;;;;;;;;;;;;;;25.43;51.33;98503.72;4482582;32;33448;-88
2022/06/08 05:43:08;;;;;;;;;;;;;;;26.28;49.31;98499.53;4482508;32;34083;-83
2022/06/08 05:45:35;;;;;;;;;;;;;;;26.18;49.46;98499.25;4482814;32;34208;-86
2022/06/08 05:48:04;;;;;;;;;;;;;;;25.40;51.05;98506.53;4468509;32;34336;-84
2022/06/08 05:50:33;;;;;;;;;;;;;;;26.03;49.68;98498.38;4482707;32;33587;-86
2022/06/08 05:53:00;;;;;;;;;;;;;;;25.03;52.88;98510.41;4482630;32;34198;-86
2022/06/08 05:55:28;;;;;;;;;;;;;;;25.65;51.07;98514.78;4482720;32;35091;-84
2022/06/08 05:57:56;;;;;;;;;;;;;;;25.38;51.95;98535.84;4481736;32;35138;-84
2022/06/08 06:00:25;;;;;;;;;;;;;;;25.56;50.58;98536.53;4482353;32;33667;-87
2022/06/08 06:02:53;;;;;;;;;;;;;;;25.99;49.85;98547.31;4482391;32;34782;-88
2022/06/08 06:05:23;;;;;;;;;;;;;;;26.39;48.49;98539.56;4482303;32;34222;-84
2022/06/08 06:07:52;;;;;;;;;;;;;;;26.14;49.51;98538.44;4467781;32;35177;-86
2022/06/08 06:10:21;;;;;;;;;;;;;;;25.98;49.59;98529.66;4467044;32;32402;-83
2022/06/08 06:12:48;;;;;;;;;;;;;;;26.56;47.95;98530.59;4481415;32;33873;-83
2022/06/08 06:15:17;;;;;;;;;;;;;;;26.90;48.04;98529.31;4482251;32;35308;-83
2022/06/08 06:17:45;;;;;;;;;;;;;;;25.54;50.78;98540.25;4482120;32;34502;-81
2022/06/08 06:20:12;;;;;;;;;;;;;;;25.94;50.24;98531.66;4483964;32;33301;-81
2022/06/08 06:22:40;;;;;;;;;;;;;;;25.99;49.23;98526.09;4483458;32;34905;-85
2022/06/08 06:25:08;;;;;;;;;;;;;;;25.71;50.68;98517.06;4470071;32;34449;-81
2022/06/08 06:27:36;;;;;;;;;;;;;;;25.61;51.03;98515.91;4483539;32;34025;-81
2022/06/08 06:30:04;;;;;;;;;;;;;;;25.78;50.75;98528.22;4479034;32;34424;-80
2022/06/08 06:32:33;;;;;;;;;;;;;;;26.22;49.76;98531.81;4483237;32;35042;-82
2022/06/08 06:35:02;;;;;;;;;;;;;;;25.80;51.36;98523.69;4467930;32;34525;-82
2022/06/08 06:37:30;;;;;;;;;;;;;;;25.43;52.13;98520.50;4470248;32;35066;-83
2022/06/08 06:39:58;;;;;;;;;;;;;;;24.47;54.37;98515.25;4484172;32;34355;-81
2022/06/08 06:42:27;;;;;;;;;;;;;;;24.79;54.28;98529.41;4482035;32;34066;-86
2022/06/08 06:44:57;;;;;;;;;;;;;;;25.40;52.67;98518.00;4470434;32;35334;-82
2022/06/08 06:47:25;;;;;;;;;;;;;;;25.44;53.00;98513.38;4483548;32;33969;-83
2022/06/08 06:49:52;;;;;;;;;;;;;;;25.47;52.23;98519.38;4475651;32;33403;-83
2022/06/08 06:52:21;;;;;;;;;;;;;;;25.30;52.17;98518.62;4468572;32;34091;-81
2022/06/08 06:54:49;;;;;;;;;;;;;;;25.14;53.86;98511.56;4486129;31;35100;-82
2022/06/08 06:57:16;;;;;;;;;;;;;;;26.23;50.57;98496.31;4472747;32;34483;-82
2022/06/08 06:59:44;;;;;;;;;;;;;;;25.18;53.32;98499.81;4483610;32;34165;-83
2022/06/08 07:02:15;;;;;;;;;;;;;;;26.11;51.03;98485.47;4482435;32;34853;-82
2022/06/08 07:04:43;;;;;;;;;;;;;;;26.65;50.12;98480.34;4480586;32;34374;-83
2022/06/08 07:07:11;;;;;;;;;;;;;;;26.32;51.19;98485.09;4481459;32;35303;-83
2022/06/08 07:09:38;;;;;;;;;;;;;;;27.17;48.93;98482.31;4481616;31;34387;-81
2022/06/08 07:12:06;;;;;;;;;;;;;;;25.79;53.06;98478.59;4485296;31;34062;-80
2022/06/08 07:14:34;;;;;;;;;;;;;;;25.87;52.02;98476.34;4487583;31;35285;-82
2022/06/08 07:17:02;;;;;;;;;;;;;;;26.20;51.35;98471.63;4469796;32;34192;-81
2022/06/08 07:19:30;;;;;;;;;;;;;;;26.44;51.06;98479.00;4484137;32;34106;-81
2022/06/08 07:21:58;;;;;;;;;;;;;;;26.74;49.69;98475.38;4483631;32;34291;-81
2022/06/08 07:24:30;;;;;;;;;;;;;;;26.45;51.04;98480.72;4479571;32;34303;-80
2022/06/08 07:26:59;;;;;;;;;;;;;;;26.54;50.96;98474.84;4468999;32;34646;-80
2022/06/08 07:29:26;;;;;;;;;;;;;;;26.25;51.37;98473.12;4483443;32;33737;-81
2022/06/08 07:31:53;;;;;;;;;;;;;;;27.15;48.37;98470.06;4483314;32;35032;-81
2022/06/08 07:34:21;;;;;;;;;;;;;;;27.04;49.30;98460.06;4483792;32;34238;-81
2022/06/08 07:36:48;;;;;;;;;;;;;;;27.10;49.28;98457.03;4483596;32;35223;-79
2022/06/08 07:39:16;;;;;;;;;;;;;;;27.16;49.13;98461.09;4483537;32;33850;-80
2022/06/08 07:41:44;;;;;;;;;;;;;;;28.44;45.75;98463.91;4483716;32;34542;-80
2022/06/08 07:44:11;;;;;;;;;;;;;;;26.93;48.63;98465.25;4469521;32;34512;-82
2022/06/08 07:46:38;;;;;;;;;;;;;;;27.36;47.91;98454.47;4483836;32;35080;-82
2022/06/08 07:51:55;;;;;;;;;;;;;;;28.37;46.44;98463.50;4467880;32;34017;-80
2022/06/08 07:54:23;;;;;;;;;;;;;;;27.78;46.92;98463.19;4467762;32;35254;-81
2022/06/08 07:56:51;;;;;;;;;;;;;;;28.21;44.33;98463.69;4468022;32;34074;-81
2022/06/08 07:59:22;;;;;;;;;;;;;;;28.71;44.26;98463.72;4475708;32;33631;-81
2022/06/08 08:01:52;;;;;;;;;;;;;;;28.61;44.98;98472.41;4469819;32;34357;-81
2022/06/08 08:04:20;;;;;;;;;;;;;;;28.18;45.69;98460.41;4469369;32;35144;-81
2022/06/08 08:06:47;;;;;;;;;;;;;;;28.07;45.62;98459.38;4483947;32;34378;-81
2022/06/08 08:09:17;;;;;;;;;;;;;;;27.31;48.74;98459.22;4479867;32;33614;-81
2022/06/08 08:11:45;;;;;;;;;;;;;;;28.15;45.95;98464.16;4468358;32;35020;-82
2022/06/08 08:14:14;;;;;;;;;;;;;;;29.40;43.50;98464.84;4467947;32;35806;-81
2022/06/08 08:16:42;;;;;;;;;;;;;;;29.62;42.75;98460.56;4467414;32;34472;-80
2022/06/08 08:19:11;;;;;;;;;;;;;;;30.05;40.10;98463.44;4467335;32;33710;-81
2022/06/08 08:21:39;;;;;;;;;;;;;;;28.71;43.21;98453.91;4453775;32;34236;-82
2022/06/08 08:24:06;;;;;;;;;;;;;;;29.23;42.30;98465.25;4467485;32;34196;-81
2022/06/08 08:26:33;;;;;;;;;;;;;;;28.64;44.11;98460.69;4467681;32;34524;-82
2022/06/08 08:29:01;;;;;;;;;;;;;;;30.02;42.00;98459.19;4467718;32;34473;-80
2022/06/08 08:31:28;;;;;;;;;;;;;;;30.09;41.52;98454.22;4467546;32;34666;-81
2022/06/08 08:33:56;;;;;;;;;;;;;;;30.72;39.18;98459.88;4464102;32;34046;-82
2022/06/08 08:36:23;;;;;;;;;;;;;;;29.77;40.66;98454.03;4470689;32;35062;-81
2022/06/08 08:38:50;;;;;;;;;;;;;;;29.14;42.92;98452.63;4463247;32;33415;-82
2022/06/08 08:44:32;;;;;;;;;;;;;;;29.95;41.14;98452.59;4450947;32;33806;-82
2022/06/08 08:47:05;;;;;;;;;;;;;;;29.16;40.65;98461.34;4448207;32;34016;-80
2022/06/08 08:49:33;;;;;;;;;;;;;;;29.05;42.08;98457.66;4452855;32;33107;-81
2022/06/08 08:52:02;;;;;;;;;;;;;;;29.92;40.23;98446.66;4465719;32;35164;-81
2022/06/08 08:54:34;;;;;;;;;;;;;;;29.91;40.51;98456.50;4451981;32;34505;-82
2022/06/08 08:57:11;;;;;;;;;;;;;;;30.46;39.95;98462.03;4453183;32;34121;-83
2022/06/08 08:59:43;;;;;;;;;;;;;;;29.76;39.58;98463.88;4467721;32;33540;-83
2022/06/08 09:02:12;;;;;;;;;;;;;;;29.12;41.38;98454.53;4452580;32;34171;-82
2022/06/08 09:04:47;;;;;;;;;;;;;;;29.73;41.36;98452.56;4467160;32;34544;-81
2022/06/08 09:07:16;;;;;;;;;;;;;;;30.43;39.22;98456.91;4451477;32;34994;-82
2022/06/08 09:09:43;;;;;;;;;;;;;;;29.11;42.69;98467.03;4466480;32;31971;-82
2022/06/08 09:12:11;;;;;;;;;;;;;;;30.76;39.94;98458.69;4472546;31;34461;-83
2022/06/08 09:14:59;;;;;;;;;;;;;;;30.20;39.76;98450.72;4495851;31;34133;-81
2022/06/08 09:17:37;;;;;;;;;;;;;;;30.19;40.37;98457.03;4473656;32;35222;-82
2022/06/08 09:20:17;;;;;;;;;;;;;;;30.12;41.51;98445.06;4485364;31;33735;-82
2022/06/08 09:22:48;;;;;;;;;;;;;;;29.60;41.68;98455.34;4477458;31;33938;-80
2022/06/08 09:25:29;;;;;;;;;;;;;;;30.55;40.44;98447.91;4498496;31;35324;-83
2022/06/08 09:27:57;;;;;;;;;;;;;;;29.51;41.85;98438.19;4484362;31;35087;-83
2022/06/08 09:30:26;;;;;;;;;;;;;;;30.45;40.55;98437.06;4498083;31;33852;-83
2022/06/08 09:33:13;;;;;;;;;;;;;;;31.08;39.42;98444.50;4478080;32;34046;-82
2022/06/08 09:36:10;;;;;;;;;;;;;;;30.16;39.73;98433.19;4466361;32;35193;-83
2022/06/08 09:38:40;;;;;;;;;;;;;;;30.71;40.06;98415.37;4452928;32;34067;-83
2022/06/08 09:41:19;;;;;;;;;;;;;;;31.08;38.70;98421.25;4452881;32;33908;-82
2022/06/08 09:43:58;;;;;;;;;;;;;;;29.68;40.46;98407.53;4453319;32;33723;-83
2022/06/08 09:51:25;;;;;;;;;;;;;;;30.34;39.03;98410.34;4474078;32;34295;-86
2022/06/08 09:52:20;;;;;;;;;;;;;;;30.44;40.06;98400.63;4470468;32;33618;-85
2022/06/08 09:54:48;;;;;;;;;;;;;;;31.32;39.60;98382.72;4469599;32;34124;-87
2022/06/08 09:57:21;;;;;;;;;;;;;;;31.56;38.42;98382.44;4484344;32;34534;-85
2022/06/08 09:59:51;;;;;;;;;;;;;;;31.41;38.54;98380.09;4475422;32;34285;-86
2022/06/08 10:02:37;;;;;;;;;;;;;;;31.98;37.04;98384.09;4469528;32;34594;-84
2022/06/08 10:05:08;;;;;;;;;;;;;;;32.26;36.09;98370.94;4454343;32;35567;-84
2022/06/08 10:08:14;;;;;;;;;;;;;;;30.03;39.55;98374.50;4475144;32;33917;-85
2022/06/08 10:10:47;;;;;;;;;;;;;;;30.69;39.23;98379.91;4422337;32;33954;-87
2022/06/08 10:13:20;;;;;;;;;;;;;;;30.50;40.46;98369.84;4413464;32;33254;-84
2022/06/08 10:15:49;;;;;;;;;;;;;;;30.67;40.65;98368.47;4444608;32;34134;-84
2022/06/08 10:18:17;;;;;;;;;;;;;;;31.42;38.00;98363.06;4464727;32;35358;-81
2022/06/08 10:20:47;;;;;;;;;;;;;;;30.73;39.10;98373.31;4449794;32;34321;-84
2022/06/08 10:23:21;;;;;;;;;;;;;;;31.90;37.71;98357.13;4463976;32;34177;-83
2022/06/08 10:25:50;;;;;;;;;;;;;;;30.86;38.87;98352.59;4464249;32;34974;-84
2022/06/08 10:28:19;;;;;;;;;;;;;;;31.92;37.18;98349.78;4470054;32;34528;-84
2022/06/08 10:30:57;;;;;;;;;;;;;;;31.98;35.71;98351.94;4474736;32;34342;-84
2022/06/08 10:33:31;;;;;;;;;;;;;;;32.29;36.00;98345.69;4464102;32;33715;-80
2022/06/08 10:35:58;;;;;;;;;;;;;;;30.23;38.47;98347.06;4484322;32;35100;-84
2022/06/08 10:38:27;;;;;;;;;;;;;;;31.33;37.76;98347.78;4484073;32;33826;-84
2022/06/08 10:44:03;;;;;;;;;;;;;;;32.55;35.45;98343.38;4470218;32;33728;-81
2022/06/08 10:46:32;;;;;;;;;;;;;;;31.26;36.62;98338.53;4451472;32;34157;-85
2022/06/08 10:48:59;;;;;;;;;;;;;;;30.89;37.58;98340.81;4451472;32;35204;-84
2022/06/08 10:51:29;;;;;;;;;;;;;;;31.63;35.75;98333.56;4452835;32;34286;-82
2022/06/08 10:56:59;;;;;;;;;;;;;;;31.83;32.82;98315.72;4468115;32;33636;-83
2022/06/08 10:59:29;;;;;;;;;;;;;;;32.07;32.32;98315.41;4454456;32;34281;-84
2022/06/08 11:02:03;;;;;;;;;;;;;;;32.15;31.88;98320.09;4454416;32;34447;-84
2022/06/08 11:04:31;;;;;;;;;;;;;;;31.45;33.23;98311.91;4461089;32;34210;-83
2022/06/08 11:07:07;;;;;;;;;;;;;;;30.99;32.68;98315.81;4452594;32;33849;-83
2022/06/08 11:09:35;;;;;;;;;;;;;;;31.05;33.27;98318.94;4452421;32;35398;-84
2022/06/08 11:12:11;;;;;;;;;;;;;;;32.17;33.51;98318.13;4458638;32;35385;-83
2022/06/08 11:14:48;;;;;;;;;;;;;;;31.42;31.67;98306.81;4467646;32;33785;-83
2022/06/08 11:17:15;;;;;;;;;;;;;;;31.97;31.97;98320.75;4468231;32;35126;-82
2022/06/08 11:19:43;;;;;;;;;;;;;;;31.61;30.99;98303.38;4467891;32;34423;-85
2022/06/08 11:22:13;;;;;;;;;;;;;;;31.04;32.58;98307.38;4452502;32;34127;-84
2022/06/08 11:24:43;;;;;;;;;;;;;;;31.07;32.44;98290.22;4439062;32;33781;-90
2022/06/08 11:27:10;;;;;;;;;;;;;;;31.64;31.82;98294.22;4453562;32;33993;-82
2022/06/08 11:29:41;;;;;;;;;;;;;;;30.87;33.00;98302.59;4466733;32;35458;-83
2022/06/08 11:32:35;;;;;;;;;;;;;;;30.96;32.14;98302.69;4467466;32;34338;-83
2022/06/08 11:35:03;;;;;;;;;;;;;;;31.18;31.33;98292.81;4466968;32;34209;-80
2022/06/08 11:37:34;;;;;;;;;;;;;;;31.16;31.62;98294.78;4468025;32;34885;-82
2022/06/08 11:40:12;;;;;;;;;;;;;;;31.29;32.21;98290.03;4467341;32;34346;-80
2022/06/08 11:42:50;;;;;;;;;;;;;;;31.37;30.93;98287.59;4467965;32;34239;-79
2022/06/08 11:45:20;;;;;;;;;;;;;;;30.87;31.90;98295.41;4467594;32;33427;-79
2022/06/08 11:48:07;;;;;;;;;;;;;;;30.61;33.10;98300.28;4466802;32;34618;-82
2022/06/08 11:50:42;;;;;;;;;;;;;;;30.98;31.95;98303.38;4453040;32;34511;-81
2022/06/08 11:53:16;;;;;;;;;;;;;;;31.92;30.87;98303.38;4468284;32;34452;-86
2022/06/08 11:56:03;;;;;;;;;;;;;;;32.23;30.44;98299.63;4482840;32;33063;-81
2022/06/08 11:58:30;;;;;;;;;;;;;;;32.63;30.63;98297.88;4463418;32;34301;-80
2022/06/08 12:01:18;;;;;;;;;;;;;;;32.44;30.23;98299.56;4466558;32;34276;-81
2022/06/08 12:04:01;;;;;;;;;;;;;;;32.97;29.45;98297.47;4467220;32;34464;-85
2022/06/08 12:06:35;;;;;;;;;;;;;;;32.83;29.43;98293.34;4452140;32;33441;-85
2022/06/08 12:09:03;;;;;;;;;;;;;;;33.07;30.28;98285.75;4466741;32;34520;-80
2022/06/08 12:11:31;;;;;;;;;;;;;;;32.53;34.26;98297.03;4468656;32;34039;-81
2022/06/08 12:14:01;;;;;;;;;;;;;;;31.93;37.45;98310.41;4476399;32;34319;-81
2022/06/08 12:16:36;;;;;;;;;;;;;;;31.33;39.70;98312.09;4481935;32;34617;-81
2022/06/08 12:19:15;;;;;;;;;;;;;;;32.75;37.26;98287.84;4479378;32;34673;-84
2022/06/08 12:21:45;;;;;;;;;;;;;;;31.86;40.08;98294.06;4480510;32;34211;-82
2022/06/08 12:24:19;;;;;;;;;;;;;;;31.23;41.58;98296.78;4483212;32;34239;-83
2022/06/08 12:26:55;;;;;;;;;;;;;;;30.72;43.13;98296.66;4480233;32;32282;-82
2022/06/08 12:29:23;;;;;;;;;;;;;;;30.53;43.31;98297.34;4482564;31;33633;-85
2022/06/08 12:32:06;;;;;;;;;;;;;;;30.11;44.09;98296.34;4468917;32;35129;-82
2022/06/08 12:34:34;;;;;;;;;;;;;;;30.61;42.82;98304.75;4467459;32;34055;-83
2022/06/08 12:37:20;;;;;;;;;;;;;;;30.41;42.77;98293.87;4467819;32;33388;-82
2022/06/08 12:39:47;;;;;;;;;;;;;;;30.07;42.80;98301.09;4468202;32;34330;-84
2022/06/08 12:42:27;;;;;;;;;;;;;;;30.99;41.61;98289.03;4467562;32;34172;-85
2022/06/08 12:45:00;;;;;;;;;;;;;;;30.86;41.89;98298.22;4467491;32;35068;-83
2022/06/08 12:47:30;;;;;;;;;;;;;;;31.26;40.79;98295.69;4475693;32;34186;-80
2022/06/08 12:49:59;;;;;;;;;;;;;;;30.95;40.89;98284.94;4486239;31;33963;-82
2022/06/08 12:52:28;;;;;;;;;;;;;;;31.34;41.02;98292.38;4462369;32;35130;-83
2022/06/08 12:54:56;;;;;;;;;;;;;;;30.94;41.47;98296.59;4454786;32;34044;-80
2022/06/08 12:57:25;;;;;;;;;;;;;;;29.65;44.43;98300.06;4470047;32;33599;-84
2022/06/08 12:59:54;;;;;;;;;;;;;;;29.85;44.29;98307.31;4466086;32;34291;-82
2022/06/08 13:02:22;;;;;;;;;;;;;;;29.76;44.50;98316.09;4464827;32;34518;-83
2022/06/08 13:04:50;;;;;;;;;;;;;;;30.37;42.81;98312.97;4465717;32;35207;-82
2022/06/08 13:07:32;;;;;;;;;;;;;;;30.24;42.84;98307.81;4467352;32;34220;-82
2022/06/08 13:10:00;;;;;;;;;;;;;;;30.10;43.58;98313.38;4482803;32;34707;-84
2022/06/08 13:12:28;;;;;;;;;;;;;;;29.42;44.25;98317.84;4483079;32;34359;-81
2022/06/08 13:14:55;;;;;;;;;;;;;;;29.76;43.59;98316.94;4468754;32;34004;-83
2022/06/08 13:17:24;;;;;;;;;;;;;;;29.84;43.74;98310.97;4482990;32;33687;-84
2022/06/08 13:19:53;;;;;;;;;;;;;;;31.08;41.50;98307.97;4482532;32;35068;-82
2022/06/08 13:22:24;;;;;;;;;;;;;;;31.01;41.72;98302.28;4457828;32;34504;-81
2022/06/08 13:24:52;;;;;;;;;;;;;;;29.81;43.35;98295.19;4478563;32;34530;-85